Time;durP1;ratioP1;P1;durP2;ratioP2;P2;SDS_P1;SDS_P2;PMS_P1;PMS_P2;Temp;Humidity;BMP_temperature;BMP_pressure;BME280_temperature;BME280_humidity;BME280_pressure;Samples;Min_cycle;Max_cycle;Signal;HPM_P1;HPM_P2
2023/03/01 00:02:24;;;;;;;;;;;;;;;-2.13;77.48;97115.03;4980415;28;19950;-74
2023/03/01 00:04:50;;;;;;;;;;;;;;;-2.16;77.48;97117.03;4997576;28;20065;-75
2023/03/01 00:07:16;;;;;;;;;;;;;;;-2.18;77.33;97118.91;4964307;28;20365;-75
2023/03/01 00:09:45;;;;;;;;;;;;;;;-2.22;78.97;97123.47;4997705;28;20336;-74
2023/03/01 00:12:11;;;;;;;;;;;;;;;-2.24;76.13;97109.94;4997358;28;19965;-74
2023/03/01 00:14:37;;;;;;;;;;;;;;;-2.25;77.99;97114.25;4997719;28;19951;-75
2023/03/01 00:17:03;;;;;;;;;;;;;;;-2.26;77.31;97117.75;4997484;28;19993;-75
2023/03/01 00:19:29;;;;;;;;;;;;;;;-2.28;78.00;97111.91;4997340;28;20029;-74
2023/03/01 00:21:55;;;;;;;;;;;;;;;-2.29;78.02;97115.44;4997251;28;19953;-74
2023/03/01 00:24:21;;;;;;;;;;;;;;;-2.31;79.14;97125.03;4997530;28;19959;-75
2023/03/01 00:26:46;;;;;;;;;;;;;;;-2.33;77.93;97118.34;4997334;28;19949;-75
2023/03/01 00:29:12;;;;;;;;;;;;;;;-2.36;79.82;97124.56;4997574;28;19959;-74
2023/03/01 00:31:38;;;;;;;;;;;;;;;-2.38;78.60;97113.59;4996925;28;20000;-74
2023/03/01 00:34:04;;;;;;;;;;;;;;;-2.41;79.53;97116.41;4997160;28;19951;-75
2023/03/01 00:36:31;;;;;;;;;;;;;;;-2.43;78.73;97110.56;4997099;28;19943;-75
2023/03/01 00:38:57;;;;;;;;;;;;;;;-2.43;78.40;97108.00;4996921;28;19953;-75
2023/03/01 00:41:23;;;;;;;;;;;;;;;-2.48;79.60;97105.81;4997290;28;20003;-75
2023/03/01 00:43:50;;;;;;;;;;;;;;;-2.49;79.12;97100.78;4979571;28;19961;-75
2023/03/01 00:46:17;;;;;;;;;;;;;;;-2.48;79.67;97097.25;4995798;28;19957;-74
2023/03/01 00:48:45;;;;;;;;;;;;;;;-2.51;78.98;97095.75;4996129;28;20352;-76
2023/03/01 00:51:13;;;;;;;;;;;;;;;-2.53;79.33;97095.06;4996722;28;19959;-74
2023/03/01 00:53:39;;;;;;;;;;;;;;;-2.52;80.05;97104.41;4996528;28;20442;-74
2023/03/01 00:56:06;;;;;;;;;;;;;;;-2.54;80.46;97098.56;4996546;28;19942;-75
2023/03/01 00:58:32;;;;;;;;;;;;;;;-2.55;80.86;97093.53;4996064;28;20423;-75
2023/03/01 01:00:58;;;;;;;;;;;;;;;-2.55;80.89;97096.13;4996564;28;19949;-74
2023/03/01 01:03:24;;;;;;;;;;;;;;;-2.59;81.22;97095.53;4996651;28;19993;-74
2023/03/01 01:05:53;;;;;;;;;;;;;;;-2.60;81.03;97091.34;4996785;28;19957;-75
2023/03/01 01:08:20;;;;;;;;;;;;;;;-2.61;80.60;97082.00;4979150;28;19952;-75
2023/03/01 01:10:46;;;;;;;;;;;;;;;-2.63;80.26;97080.50;4996438;28;19988;-75
2023/03/01 01:13:12;;;;;;;;;;;;;;;-2.63;80.53;97083.06;4996475;28;19971;-75
2023/03/01 01:15:38;;;;;;;;;;;;;;;-2.68;81.58;97089.38;4978760;28;19949;-74
2023/03/01 01:18:04;;;;;;;;;;;;;;;-2.69;80.56;97087.75;4996252;28;20040;-75
2023/03/01 01:20:30;;;;;;;;;;;;;;;-2.69;79.65;97079.19;4996360;28;20038;-75
2023/03/01 01:22:56;;;;;;;;;;;;;;;-2.70;80.99;97073.25;4996482;28;19948;-75
2023/03/01 01:25:24;;;;;;;;;;;;;;;-2.69;80.96;97074.06;4996081;28;20472;-74
2023/03/01 01:27:50;;;;;;;;;;;;;;;-2.69;80.71;97072.34;4996371;28;19955;-74
2023/03/01 01:30:16;;;;;;;;;;;;;;;-2.70;81.19;97065.56;4996032;28;19966;-74
2023/03/01 01:32:42;;;;;;;;;;;;;;;-2.71;81.64;97073.38;4996114;28;19949;-74
2023/03/01 01:35:08;;;;;;;;;;;;;;;-2.74;81.33;97066.72;4995879;28;19945;-75
2023/03/01 01:37:34;;;;;;;;;;;;;;;-2.75;80.68;97067.69;4978419;28;19950;-75
2023/03/01 01:40:00;;;;;;;;;;;;;;;-2.77;80.76;97056.72;4983690;28;19982;-74
2023/03/01 01:42:27;;;;;;;;;;;;;;;-2.79;81.08;97053.44;4995691;28;19975;-74
2023/03/01 01:45:19;;;;;;;;;;;;;;;-2.83;81.35;97052.06;4995854;28;19958;-74
2023/03/01 01:47:48;;;;;;;;;;;;;;;-2.85;82.25;97061.63;4982643;28;20325;-74
2023/03/01 01:50:16;;;;;;;;;;;;;;;-2.91;83.82;97062.91;4995734;28;19966;-75
2023/03/01 01:52:42;;;;;;;;;;;;;;;-2.93;82.74;97056.28;4995945;28;19956;-74
2023/03/01 01:55:16;;;;;;;;;;;;;;;-2.95;82.70;97058.13;4994982;28;19953;-74
2023/03/01 01:57:44;;;;;;;;;;;;;;;-2.99;82.10;97057.53;4995107;28;19951;-74
2023/03/01 02:00:15;;;;;;;;;;;;;;;-3.00;83.78;97065.34;4995971;28;19953;-75
2023/03/01 02:02:42;;;;;;;;;;;;;;;-3.03;82.07;97052.78;4995888;28;19956;-76
2023/03/01 02:05:14;;;;;;;;;;;;;;;-3.05;82.05;97055.44;4995170;28;20328;-75
2023/03/01 02:07:41;;;;;;;;;;;;;;;-3.07;83.70;97065.84;4995647;28;20400;-74
2023/03/01 02:10:07;;;;;;;;;;;;;;;-3.06;83.06;97054.66;4995056;28;19985;-74
2023/03/01 02:12:34;;;;;;;;;;;;;;;-3.07;82.73;97050.47;4995255;28;19948;-74
2023/03/01 02:14:59;;;;;;;;;;;;;;;-3.07;84.19;97060.72;4995112;28;19954;-74
2023/03/01 02:17:25;;;;;;;;;;;;;;;-3.08;84.72;97058.25;4995375;28;20402;-74
2023/03/01 02:20:10;;;;;;;;;;;;;;;-3.09;84.03;97054.88;4995202;28;20286;-74
2023/03/01 02:22:37;;;;;;;;;;;;;;;-3.09;81.63;97036.09;4995203;28;19946;-74
2023/03/01 02:25:18;;;;;;;;;;;;;;;-3.11;83.57;97046.50;4995215;28;20307;-75
2023/03/01 02:27:47;;;;;;;;;;;;;;;-3.10;83.43;97042.97;4985781;28;19944;-74
2023/03/01 02:30:13;;;;;;;;;;;;;;;-3.07;83.91;97045.31;4994781;28;19954;-74
2023/03/01 02:32:41;;;;;;;;;;;;;;;-3.04;84.55;97043.44;4995157;28;20045;-75
2023/03/01 02:35:12;;;;;;;;;;;;;;;-3.04;83.81;97039.13;4994718;28;20335;-75
2023/03/01 02:37:38;;;;;;;;;;;;;;;-3.02;84.37;97033.88;4994652;28;19954;-74
2023/03/01 02:40:11;;;;;;;;;;;;;;;-3.00;84.51;97032.84;4994103;28;19971;-75
2023/03/01 02:42:41;;;;;;;;;;;;;;;-2.97;83.73;97027.44;4983932;28;19968;-74
2023/03/01 02:45:07;;;;;;;;;;;;;;;-2.94;83.99;97018.69;4995007;28;19975;-75
2023/03/01 02:47:33;;;;;;;;;;;;;;;-2.91;84.79;97021.84;4994715;28;19952;-74
2023/03/01 02:49:59;;;;;;;;;;;;;;;-2.90;83.67;97010.66;4977134;28;20417;-74
2023/03/01 02:52:44;;;;;;;;;;;;;;;-2.88;84.24;97020.78;4994748;28;20450;-75
2023/03/01 02:55:12;;;;;;;;;;;;;;;-2.87;84.82;97014.72;4982117;28;20012;-75
2023/03/01 02:57:40;;;;;;;;;;;;;;;-2.86;83.74;97012.06;4994535;28;20405;-75
2023/03/01 03:00:21;;;;;;;;;;;;;;;-2.86;85.36;97017.19;4994676;28;19946;-74
2023/03/01 03:02:48;;;;;;;;;;;;;;;-2.83;85.38;97013.56;4994869;28;19950;-74
2023/03/01 03:05:19;;;;;;;;;;;;;;;-2.80;84.88;97010.72;4994196;28;19945;-74
2023/03/01 03:07:46;;;;;;;;;;;;;;;-2.78;83.08;96995.22;4994681;28;19942;-75
2023/03/01 03:10:20;;;;;;;;;;;;;;;-2.78;83.82;96997.78;4993544;28;20415;-75
2023/03/01 03:13:05;;;;;;;;;;;;;;;-2.77;84.66;96995.09;4994223;28;19956;-74
2023/03/01 03:15:31;;;;;;;;;;;;;;;-2.76;85.37;96999.28;4995427;28;19949;-75
2023/03/01 03:17:58;;;;;;;;;;;;;;;-2.75;84.40;96987.28;4994570;28;19951;-74
2023/03/01 03:20:25;;;;;;;;;;;;;;;-2.75;85.28;96985.53;4976996;28;20286;-74
2023/03/01 03:22:53;;;;;;;;;;;;;;;-2.73;85.12;96990.53;4994351;28;19946;-74
2023/03/01 03:25:19;;;;;;;;;;;;;;;-2.71;84.14;96984.34;4994016;28;19952;-74
2023/03/01 03:27:46;;;;;;;;;;;;;;;-2.71;84.66;96992.06;4994277;28;19943;-74
2023/03/01 03:30:16;;;;;;;;;;;;;;;-2.70;84.95;96985.97;4994170;28;19969;-75
2023/03/01 03:32:51;;;;;;;;;;;;;;;-2.70;84.31;96985.97;4960705;28;19951;-75
2023/03/01 03:35:22;;;;;;;;;;;;;;;-2.69;86.12;97002.19;4994327;28;19953;-74
2023/03/01 03:38:03;;;;;;;;;;;;;;;-2.68;84.29;96986.66;4993923;28;19959;-75
2023/03/01 03:40:31;;;;;;;;;;;;;;;-2.67;84.97;96987.47;4994459;28;19966;-75
2023/03/01 03:42:57;;;;;;;;;;;;;;;-2.67;85.86;96993.44;4994246;28;19965;-74
2023/03/01 03:45:23;;;;;;;;;;;;;;;-2.63;85.51;96995.75;4994348;28;20001;-75
2023/03/01 03:47:48;;;;;;;;;;;;;;;-2.63;84.48;96983.72;4993519;28;19972;-75
2023/03/01 03:50:15;;;;;;;;;;;;;;;-2.62;84.55;96985.38;4976351;28;19993;-74
2023/03/01 03:52:41;;;;;;;;;;;;;;;-2.59;84.60;96984.31;4993971;28;20339;-74
2023/03/01 03:55:10;;;;;;;;;;;;;;;-2.57;83.52;96977.31;4994177;28;20003;-75
2023/03/01 03:57:37;;;;;;;;;;;;;;;-2.57;84.83;96980.69;4993919;28;19949;-75
2023/03/01 04:00:05;;;;;;;;;;;;;;;-2.56;85.39;96991.75;4993965;28;19950;-75
2023/03/01 04:02:30;;;;;;;;;;;;;;;-2.57;84.94;96988.38;4994066;28;19946;-75
2023/03/01 04:04:56;;;;;;;;;;;;;;;-2.54;85.91;96987.31;4993724;28;20503;-73
2023/03/01 04:07:22;;;;;;;;;;;;;;;-2.53;84.71;96979.50;4976498;28;19984;-74
2023/03/01 04:09:48;;;;;;;;;;;;;;;-2.50;85.68;96979.25;4993709;28;19969;-75
2023/03/01 04:12:14;;;;;;;;;;;;;;;-2.49;84.73;96972.38;4993942;28;19999;-74
2023/03/01 04:14:40;;;;;;;;;;;;;;;-2.47;85.01;96981.56;4993675;28;19943;-74
2023/03/01 04:17:06;;;;;;;;;;;;;;;-2.48;85.12;96977.38;4993949;28;19951;-74
2023/03/01 04:19:35;;;;;;;;;;;;;;;-2.48;84.78;96968.84;4993841;28;20049;-75
2023/03/01 04:22:09;;;;;;;;;;;;;;;-2.46;85.73;96980.66;4996121;28;19946;-75
2023/03/01 04:24:35;;;;;;;;;;;;;;;-2.45;85.24;96963.47;4997539;28;19971;-75
2023/03/01 04:27:01;;;;;;;;;;;;;;;-2.42;85.38;96975.25;4997333;28;19952;-74
2023/03/01 04:29:27;;;;;;;;;;;;;;;-2.41;85.44;96970.00;4997188;28;19961;-75
2023/03/01 04:31:53;;;;;;;;;;;;;;;-2.39;85.18;96965.56;4996995;28;20047;-74
2023/03/01 04:34:19;;;;;;;;;;;;;;;-2.39;84.85;96957.84;4963790;28;20458;-75
2023/03/01 04:36:45;;;;;;;;;;;;;;;-2.38;85.47;96961.22;4997079;28;20316;-74
2023/03/01 04:39:14;;;;;;;;;;;;;;;-2.37;85.37;96960.28;4995824;28;19947;-74
2023/03/01 04:41:39;;;;;;;;;;;;;;;-2.35;84.93;96960.97;4996664;28;19966;-75
2023/03/01 04:44:06;;;;;;;;;;;;;;;-2.33;84.88;96964.22;4997010;28;20338;-75
2023/03/01 04:46:32;;;;;;;;;;;;;;;-2.32;85.69;96963.31;4996707;28;19966;-74
2023/03/01 04:48:58;;;;;;;;;;;;;;;-2.31;84.98;96954.63;4996872;28;20030;-74
2023/03/01 04:51:23;;;;;;;;;;;;;;;-2.29;84.49;96956.16;4996984;28;20059;-74
2023/03/01 04:53:49;;;;;;;;;;;;;;;-2.28;84.66;96954.41;4996734;28;20438;-74
2023/03/01 04:56:17;;;;;;;;;;;;;;;-2.30;85.30;96956.28;4997063;28;19951;-75
2023/03/01 04:58:44;;;;;;;;;;;;;;;-2.30;84.68;96957.09;4996669;28;19949;-75
2023/03/01 05:01:19;;;;;;;;;;;;;;;-2.28;85.14;96959.53;4996441;28;20323;-74
2023/03/01 05:03:46;;;;;;;;;;;;;;;-2.30;85.36;96958.84;4997038;28;19944;-75
2023/03/01 05:06:12;;;;;;;;;;;;;;;-2.29;84.79;96955.31;4996372;28;20427;-75
2023/03/01 05:08:38;;;;;;;;;;;;;;;-2.27;85.11;96958.59;4996316;28;19942;-75
2023/03/01 05:11:05;;;;;;;;;;;;;;;-2.26;86.05;96965.38;4996764;28;19961;-75
2023/03/01 05:13:31;;;;;;;;;;;;;;;-2.27;84.56;96948.31;4996420;28;19967;-74
2023/03/01 05:15:59;;;;;;;;;;;;;;;-2.26;86.58;96962.81;4979069;28;19945;-74
2023/03/01 05:18:26;;;;;;;;;;;;;;;-2.25;86.00;96951.56;4996845;28;19943;-75
2023/03/01 05:20:57;;;;;;;;;;;;;;;-2.23;85.01;96943.75;4996208;28;19953;-74
2023/03/01 05:23:24;;;;;;;;;;;;;;;-2.23;85.28;96943.75;4996477;28;20415;-75
2023/03/01 05:25:52;;;;;;;;;;;;;;;-2.24;85.92;96953.22;4996098;28;19950;-75
2023/03/01 05:28:19;;;;;;;;;;;;;;;-2.24;86.04;96958.34;4996259;28;19943;-75
2023/03/01 05:30:45;;;;;;;;;;;;;;;-2.26;86.77;96961.03;4995912;28;19978;-74
2023/03/01 05:33:13;;;;;;;;;;;;;;;-2.26;86.35;96960.22;4995352;28;19941;-75
2023/03/01 05:35:42;;;;;;;;;;;;;;;-2.27;86.77;96969.72;4995216;28;19955;-75
2023/03/01 05:38:08;;;;;;;;;;;;;;;-2.27;87.53;96968.88;4995065;28;19950;-74
2023/03/01 05:40:34;;;;;;;;;;;;;;;-2.28;86.34;96962.91;4996316;28;19959;-75
2023/03/01 05:43:00;;;;;;;;;;;;;;;-2.28;86.75;96959.53;4996065;28;19996;-74
2023/03/01 05:45:27;;;;;;;;;;;;;;;-2.28;86.53;96957.78;4996354;28;19948;-75
2023/03/01 05:47:54;;;;;;;;;;;;;;;-2.27;87.04;96959.44;4995549;28;19944;-74
2023/03/01 05:50:21;;;;;;;;;;;;;;;-2.29;86.68;96950.19;4995662;28;19956;-75
2023/03/01 05:52:49;;;;;;;;;;;;;;;-2.29;87.49;96963.03;4995677;28;19949;-74
2023/03/01 05:55:19;;;;;;;;;;;;;;;-2.29;85.94;96947.63;4994982;28;19947;-74
2023/03/01 05:57:45;;;;;;;;;;;;;;;-2.28;86.94;96947.50;4995578;28;20318;-74
2023/03/01 06:00:11;;;;;;;;;;;;;;;-2.26;86.52;96948.19;4995475;28;20392;-75
2023/03/01 06:02:37;;;;;;;;;;;;;;;-2.28;85.97;96944.94;4995393;28;19951;-74
2023/03/01 06:05:04;;;;;;;;;;;;;;;-2.23;87.21;96959.97;4995476;28;19951;-74
2023/03/01 06:07:31;;;;;;;;;;;;;;;-2.21;87.06;96957.28;4995146;28;19961;-75
2023/03/01 06:09:57;;;;;;;;;;;;;;;-2.19;86.38;96955.41;4994299;28;19956;-75
2023/03/01 06:12:23;;;;;;;;;;;;;;;-2.18;86.81;96959.59;4995396;28;19948;-74
2023/03/01 06:14:49;;;;;;;;;;;;;;;-2.19;87.75;96961.34;4995498;28;20410;-75
2023/03/01 06:17:14;;;;;;;;;;;;;;;-2.19;87.50;96960.53;4995355;28;20321;-74
2023/03/01 06:19:40;;;;;;;;;;;;;;;-2.21;87.34;96944.44;4995375;28;20460;-74
2023/03/01 06:22:06;;;;;;;;;;;;;;;-2.20;87.47;96951.22;4994992;28;19980;-75
2023/03/01 06:24:32;;;;;;;;;;;;;;;-2.21;87.10;96942.69;4995269;28;20313;-75
2023/03/01 06:26:58;;;;;;;;;;;;;;;-2.21;88.26;96952.94;4995514;28;20332;-74
2023/03/01 06:29:24;;;;;;;;;;;;;;;-2.19;86.69;96932.28;4977932;28;19950;-74
2023/03/01 06:31:50;;;;;;;;;;;;;;;-2.21;87.99;96940.09;4995005;28;19962;-74
2023/03/01 06:34:16;;;;;;;;;;;;;;;-2.20;86.77;96935.81;4994991;28;19948;-75
2023/03/01 06:36:42;;;;;;;;;;;;;;;-2.21;88.01;96937.53;4994851;28;19952;-75
2023/03/01 06:39:08;;;;;;;;;;;;;;;-2.21;85.74;96929.84;4994818;28;20471;-74
2023/03/01 06:41:34;;;;;;;;;;;;;;;-2.19;88.05;96940.00;4994403;28;20014;-74
2023/03/01 06:43:59;;;;;;;;;;;;;;;-2.12;86.94;96938.53;4977499;28;19962;-75
2023/03/01 06:46:25;;;;;;;;;;;;;;;-2.04;86.11;96936.16;4994673;28;20318;-74
2023/03/01 06:48:51;;;;;;;;;;;;;;;-1.80;85.90;96928.16;4994677;28;19990;-74
2023/03/01 06:51:17;;;;;;;;;;;;;;;-1.40;85.65;96924.00;4994407;28;20004;-75
2023/03/01 06:53:43;;;;;;;;;;;;;;;-0.98;84.28;96903.22;4977421;28;19973;-75
2023/03/01 06:56:09;;;;;;;;;;;;;;;-0.56;82.86;96893.44;4994659;28;20333;-74
2023/03/01 06:58:34;;;;;;;;;;;;;;;-0.12;81.11;96882.66;4994486;28;20330;-75
2023/03/01 07:01:04;;;;;;;;;;;;;;;0.33;79.79;96866.47;4994679;28;20010;-74
2023/03/01 07:03:30;;;;;;;;;;;;;;;0.65;78.43;96860.03;4994557;28;19945;-74
2023/03/01 07:05:56;;;;;;;;;;;;;;;0.92;76.19;96844.50;4994338;28;19947;-74
2023/03/01 07:08:22;;;;;;;;;;;;;;;1.21;76.14;96836.53;4994488;28;20044;-75
2023/03/01 07:10:48;;;;;;;;;;;;;;;1.47;75.32;96824.59;5000684;28;19970;-74
2023/03/01 07:13:14;;;;;;;;;;;;;;;1.66;72.97;96806.31;4999521;28;19969;-74
2023/03/01 07:15:40;;;;;;;;;;;;;;;1.77;73.96;96807.84;4994637;28;19956;-74
2023/03/01 07:18:06;;;;;;;;;;;;;;;1.73;72.19;96791.81;4994326;28;20015;-74
2023/03/01 07:20:31;;;;;;;;;;;;;;;1.71;72.36;96796.31;4994431;28;20036;-74
2023/03/01 07:22:58;;;;;;;;;;;;;;;1.76;72.07;96799.25;4994125;28;19981;-74
2023/03/01 07:25:24;;;;;;;;;;;;;;;1.76;71.60;96794.06;4994094;28;19951;-74
2023/03/01 07:27:51;;;;;;;;;;;;;;;1.76;71.99;96807.00;4994150;28;19958;-74
2023/03/01 07:30:17;;;;;;;;;;;;;;;1.78;71.37;96779.22;4994448;28;19948;-74
2023/03/01 07:32:42;;;;;;;;;;;;;;;1.88;72.28;96793.81;4994251;28;20008;-74
2023/03/01 07:35:08;;;;;;;;;;;;;;;1.96;71.27;96773.97;4993990;28;20007;-75
2023/03/01 07:37:34;;;;;;;;;;;;;;;2.09;70.22;96780.50;4994399;28;20005;-74
2023/03/01 07:40:00;;;;;;;;;;;;;;;2.15;70.91;96777.28;4994085;28;19954;-74
2023/03/01 07:42:26;;;;;;;;;;;;;;;2.22;69.63;96765.31;4994115;28;20000;-75
2023/03/01 07:44:52;;;;;;;;;;;;;;;2.28;71.23;96769.88;4994099;28;19954;-74
2023/03/01 07:47:18;;;;;;;;;;;;;;;2.35;70.03;96764.88;4976754;28;19950;-74
2023/03/01 07:49:43;;;;;;;;;;;;;;;2.35;69.83;96765.69;4994165;28;19950;-75
2023/03/01 07:52:11;;;;;;;;;;;;;;;2.42;68.85;96760.69;4993774;28;19966;-74
2023/03/01 07:54:36;;;;;;;;;;;;;;;2.49;68.44;96745.34;4976395;28;19944;-74
2023/03/01 07:57:02;;;;;;;;;;;;;;;2.60;69.74;96752.78;4996629;28;20065;-75
2023/03/01 07:59:29;;;;;;;;;;;;;;;2.79;68.92;96752.50;4997863;28;19961;-75
2023/03/01 08:01:56;;;;;;;;;;;;;;;2.96;68.03;96726.56;4997791;28;19947;-74
2023/03/01 08:04:23;;;;;;;;;;;;;;;3.14;67.70;96739.38;4997253;28;20014;-74
2023/03/01 08:06:48;;;;;;;;;;;;;;;3.27;68.26;96733.69;4997501;28;19953;-75
2023/03/01 08:09:14;;;;;;;;;;;;;;;3.46;66.80;96730.72;4996496;28;19947;-75
2023/03/01 08:11:40;;;;;;;;;;;;;;;3.60;65.88;96718.88;4997674;28;19959;-75
2023/03/01 08:14:06;;;;;;;;;;;;;;;3.71;66.65;96726.28;4997822;28;20366;-75
2023/03/01 08:16:33;;;;;;;;;;;;;;;3.88;66.10;96719.22;4997385;28;19940;-74
2023/03/01 08:19:03;;;;;;;;;;;;;;;3.97;65.13;96718.25;4997362;28;19948;-75
2023/03/01 08:21:28;;;;;;;;;;;;;;;4.08;65.60;96714.44;4997594;28;20305;-74
2023/03/01 08:23:54;;;;;;;;;;;;;;;4.09;66.19;96715.25;4997245;28;19983;-75
2023/03/01 08:26:21;;;;;;;;;;;;;;;4.14;66.01;96711.19;4997255;28;19943;-75
2023/03/01 08:28:48;;;;;;;;;;;;;;;4.09;65.48;96718.66;4997615;28;19954;-74
2023/03/01 08:31:24;;;;;;;;;;;;;;;4.14;65.30;96715.56;4997364;28;20451;-74
2023/03/01 08:33:55;;;;;;;;;;;;;;;4.29;65.53;96718.25;4996947;28;19952;-74
2023/03/01 08:36:22;;;;;;;;;;;;;;;4.42;65.39;96708.88;4997287;28;20388;-74
2023/03/01 08:38:47;;;;;;;;;;;;;;;4.59;63.93;96708.78;4996885;28;20411;-74
2023/03/01 08:41:14;;;;;;;;;;;;;;;4.70;62.77;96699.78;4996932;28;20038;-74
2023/03/01 08:43:40;;;;;;;;;;;;;;;4.81;65.04;96720.16;4997055;28;19953;-75
2023/03/01 08:46:06;;;;;;;;;;;;;;;4.79;62.86;96709.13;4979493;28;19952;-75
2023/03/01 08:48:32;;;;;;;;;;;;;;;4.62;64.06;96724.84;4996800;28;19955;-75
2023/03/01 08:51:06;;;;;;;;;;;;;;;4.43;61.50;96707.09;4996981;28;19998;-75
2023/03/01 08:53:32;;;;;;;;;;;;;;;4.47;60.97;96714.38;4997001;28;19943;-75
2023/03/01 08:55:59;;;;;;;;;;;;;;;4.39;59.79;96711.00;4996738;28;19952;-74
2023/03/01 08:58:25;;;;;;;;;;;;;;;4.36;61.04;96724.34;4996775;28;20406;-74
2023/03/01 09:00:51;;;;;;;;;;;;;;;4.37;61.35;96720.78;4996580;28;19954;-76
2023/03/01 09:03:17;;;;;;;;;;;;;;;4.46;62.73;96740.53;4996590;28;19951;-75
2023/03/01 09:05:45;;;;;;;;;;;;;;;4.48;59.42;96715.19;4996993;28;19953;-75
2023/03/01 09:08:11;;;;;;;;;;;;;;;4.51;60.19;96720.03;4995204;28;19956;-74
2023/03/01 09:10:38;;;;;;;;;;;;;;;4.24;58.61;96721.31;4979128;28;19953;-74
2023/03/01 09:13:04;;;;;;;;;;;;;;;4.19;61.33;96731.44;4996470;28;20410;-75
2023/03/01 09:15:29;;;;;;;;;;;;;;;4.17;61.30;96723.81;4996306;28;20002;-74
2023/03/01 09:17:55;;;;;;;;;;;;;;;4.03;63.77;96730.53;4996410;28;19953;-74
2023/03/01 09:20:21;;;;;;;;;;;;;;;3.71;60.00;96712.50;4996510;28;20429;-75
2023/03/01 09:22:47;;;;;;;;;;;;;;;3.78;61.17;96721.22;4996652;28;19998;-75
2023/03/01 09:25:13;;;;;;;;;;;;;;;3.61;60.47;96702.31;4996364;28;20404;-75
2023/03/01 09:27:39;;;;;;;;;;;;;;;3.53;62.42;96720.50;4996146;28;19954;-75
2023/03/01 09:30:05;;;;;;;;;;;;;;;3.28;60.48;96705.00;4996188;28;19947;-75
2023/03/01 09:32:31;;;;;;;;;;;;;;;3.28;61.09;96709.41;4996679;28;19961;-74
2023/03/01 09:35:06;;;;;;;;;;;;;;;3.48;63.52;96720.19;4996025;28;19950;-75
2023/03/01 09:37:32;;;;;;;;;;;;;;;3.77;63.27;96725.59;4998532;28;19950;-75
2023/03/01 09:39:59;;;;;;;;;;;;;;;4.00;62.37;96720.47;4995834;28;19963;-75
2023/03/01 09:42:27;;;;;;;;;;;;;;;4.25;60.98;96710.78;4996179;28;19985;-72
2023/03/01 09:45:01;;;;;;;;;;;;;;;4.44;60.92;96713.91;4995409;28;20430;-75
2023/03/01 09:47:29;;;;;;;;;;;;;;;4.66;61.82;96712.28;4988146;28;19947;-75
2023/03/01 09:50:06;;;;;;;;;;;;;;;4.80;60.96;96706.34;4996215;28;19953;-75
2023/03/01 09:52:34;;;;;;;;;;;;;;;4.77;59.91;96706.69;4995825;28;19962;-75
2023/03/01 09:55:01;;;;;;;;;;;;;;;4.74;60.65;96714.03;4995457;28;19949;-76
2023/03/01 09:57:37;;;;;;;;;;;;;;;4.84;60.34;96714.59;4996160;28;19944;-74
2023/03/01 10:00:21;;;;;;;;;;;;;;;4.97;59.56;96704.41;4995701;28;20408;-74
2023/03/01 10:03:02;;;;;;;;;;;;;;;4.85;57.00;96706.63;4995523;28;19958;-74
2023/03/01 10:05:28;;;;;;;;;;;;;;;4.25;57.67;96702.19;4995423;28;19952;-74
2023/03/01 10:08:00;;;;;;;;;;;;;;;3.95;60.49;96721.94;4995307;28;20400;-75
2023/03/01 10:10:29;;;;;;;;;;;;;;;3.90;60.64;96732.84;4978044;28;19946;-74
2023/03/01 10:12:55;;;;;;;;;;;;;;;3.81;61.61;96736.47;4995758;28;20333;-74
2023/03/01 10:15:37;;;;;;;;;;;;;;;3.96;61.02;96726.97;4995292;28;19946;-74
2023/03/01 10:18:09;;;;;;;;;;;;;;;4.18;61.75;96725.44;4995548;28;19945;-74
2023/03/01 10:20:57;;;;;;;;;;;;;;;4.43;59.49;96700.13;4994934;28;19944;-75
2023/03/01 10:23:23;;;;;;;;;;;;;;;4.38;59.62;96705.00;4995299;28;20390;-74
2023/03/01 10:26:08;;;;;;;;;;;;;;;4.38;59.29;96688.63;4995146;28;19956;-75
2023/03/01 10:28:43;;;;;;;;;;;;;;;4.24;58.92;96687.56;4984509;28;20405;-74
2023/03/01 10:31:14;;;;;;;;;;;;;;;4.15;58.95;96681.63;4994988;28;19966;-75
2023/03/01 10:33:41;;;;;;;;;;;;;;;4.13;58.90;96687.97;4994970;28;19943;-74
2023/03/01 10:36:07;;;;;;;;;;;;;;;4.13;58.10;96680.19;4994702;28;19942;-74
2023/03/01 10:38:47;;;;;;;;;;;;;;;4.14;60.79;96705.97;4994757;28;20043;-75
2023/03/01 10:41:13;;;;;;;;;;;;;;;4.27;59.86;96703.63;4995182;28;19972;-74
2023/03/01 10:43:45;;;;;;;;;;;;;;;4.35;58.60;96683.81;4995023;28;19963;-74
2023/03/01 10:46:26;;;;;;;;;;;;;;;4.42;57.63;96674.31;4977669;28;19943;-74
2023/03/01 10:49:04;;;;;;;;;;;;;;;4.52;59.84;96674.09;4994977;28;19952;-74
2023/03/01 10:51:30;;;;;;;;;;;;;;;4.67;59.27;96672.34;4994635;28;20450;-74
2023/03/01 10:53:55;;;;;;;;;;;;;;;4.65;56.39;96651.75;4994803;28;19952;-74
2023/03/01 10:56:21;;;;;;;;;;;;;;;4.80;58.73;96669.97;4994832;28;19986;-74
2023/03/01 10:59:01;;;;;;;;;;;;;;;4.81;58.06;96663.78;4994398;28;20399;-75
2023/03/01 11:01:32;;;;;;;;;;;;;;;4.93;58.94;96666.75;4994675;28;19943;-74
2023/03/01 11:04:06;;;;;;;;;;;;;;;5.15;58.25;96665.09;4994361;28;19959;-75
2023/03/01 11:06:36;;;;;;;;;;;;;;;5.27;57.96;96647.25;4994305;28;19937;-74
2023/03/01 11:09:19;;;;;;;;;;;;;;;5.38;58.60;96662.44;4994630;28;19945;-74
2023/03/01 11:11:45;;;;;;;;;;;;;;;5.28;56.43;96641.88;4994512;28;19967;-74
2023/03/01 11:14:16;;;;;;;;;;;;;;;5.35;58.04;96664.56;4994265;28;19953;-73
2023/03/01 11:16:43;;;;;;;;;;;;;;;5.25;56.93;96644.84;4994239;28;19945;-74
2023/03/01 11:19:09;;;;;;;;;;;;;;;5.26;56.46;96643.84;4994623;28;20287;-73
2023/03/01 11:21:37;;;;;;;;;;;;;;;5.37;57.83;96654.78;4994312;28;19952;-73
2023/03/01 11:24:05;;;;;;;;;;;;;;;5.57;57.08;96634.25;4994251;28;19947;-73
2023/03/01 11:26:35;;;;;;;;;;;;;;;5.69;56.31;96708.22;4994300;28;19947;-74
2023/03/01 11:29:05;;;;;;;;;;;;;;;5.60;55.71;96691.91;4994154;28;19954;-74
2023/03/01 11:31:31;;;;;;;;;;;;;;;5.73;55.97;96686.06;4996352;28;20418;-74
2023/03/01 11:34:00;;;;;;;;;;;;;;;5.95;55.67;96686.97;4998282;28;20338;-74
2023/03/01 11:36:39;;;;;;;;;;;;;;;6.23;53.66;96681.06;4998270;28;20373;-74
2023/03/01 11:39:17;;;;;;;;;;;;;;;6.19;51.70;96666.81;4989673;28;19994;-74
2023/03/01 11:41:46;;;;;;;;;;;;;;;6.25;53.34;96673.88;4990266;28;19975;-74
2023/03/01 11:44:28;;;;;;;;;;;;;;;6.27;52.84;96666.69;4998024;28;19947;-75
2023/03/01 11:47:23;;;;;;;;;;;;;;;6.30;53.88;96658.53;4998161;28;19951;-74
2023/03/01 11:50:02;;;;;;;;;;;;;;;6.47;53.56;96657.28;4952691;28;19949;-74
2023/03/01 11:52:40;;;;;;;;;;;;;;;6.56;53.54;96657.16;4997909;28;19967;-75
2023/03/01 11:55:24;;;;;;;;;;;;;;;6.67;52.87;96656.66;4997706;28;19945;-74
2023/03/01 11:58:10;;;;;;;;;;;;;;;6.49;52.39;96651.91;4997683;28;19953;-75
2023/03/01 12:00:54;;;;;;;;;;;;;;;6.52;52.40;96642.88;4957891;28;20314;-74
2023/03/01 12:03:26;;;;;;;;;;;;;;;6.76;52.29;96628.66;4980290;28;19947;-74
2023/03/01 12:06:03;;;;;;;;;;;;;;;6.89;51.32;96639.19;4997598;28;20409;-74
2023/03/01 12:08:35;;;;;;;;;;;;;;;6.79;53.13;96625.69;4997466;28;20391;-74
2023/03/01 12:11:36;;;;;;;;;;;;;;;6.91;53.26;96629.38;4997587;28;19956;-74
2023/03/01 12:14:05;;;;;;;;;;;;;;;7.14;53.03;96625.69;4965980;28;19941;-74
2023/03/01 12:16:42;;;;;;;;;;;;;;;7.27;52.82;96615.34;4993477;28;19947;-75
2023/03/01 12:19:27;;;;;;;;;;;;;;;7.26;50.29;96613.72;4997321;28;19949;-74
2023/03/01 12:21:53;;;;;;;;;;;;;;;7.22;51.76;96609.88;4997412;28;19948;-74
2023/03/01 12:24:28;;;;;;;;;;;;;;;7.27;52.67;96594.50;4997329;28;19949;-74
2023/03/01 12:27:12;;;;;;;;;;;;;;;7.21;49.27;96603.06;4987661;28;20023;-74
2023/03/01 12:29:42;;;;;;;;;;;;;;;7.12;52.17;96605.03;4997144;28;20320;-74
2023/03/01 12:32:16;;;;;;;;;;;;;;;7.10;50.47;96599.22;4997503;28;20348;-74
2023/03/01 12:35:05;;;;;;;;;;;;;;;7.08;51.79;96580.34;4997225;28;20434;-74
2023/03/01 12:37:31;;;;;;;;;;;;;;;7.01;50.92;96589.91;4996852;28;19957;-74
2023/03/01 12:40:16;;;;;;;;;;;;;;;6.93;52.05;96590.06;4997464;28;20314;-74
2023/03/01 12:42:51;;;;;;;;;;;;;;;7.01;53.28;96589.91;4996927;28;19972;-75
2023/03/01 12:45:36;;;;;;;;;;;;;;;7.03;51.68;96573.06;4997054;28;19956;-75
2023/03/01 12:48:12;;;;;;;;;;;;;;;7.12;52.80;96565.94;4984874;28;19960;-75
2023/03/01 12:50:41;;;;;;;;;;;;;;;7.20;51.98;96559.72;4997401;28;19944;-75
2023/03/01 12:53:17;;;;;;;;;;;;;;;7.27;52.19;96556.16;4996639;28;20451;-74
2023/03/01 12:55:43;;;;;;;;;;;;;;;7.39;50.28;96563.41;4996616;28;19944;-75
2023/03/01 12:58:12;;;;;;;;;;;;;;;7.46;51.46;96548.63;4996615;28;19951;-74
2023/03/01 13:00:40;;;;;;;;;;;;;;;7.41;50.99;96550.97;4996585;28;19955;-74